Terminal Aerodrome Forecast
Issued by NWS Denver/Boulder, CO

Home | Current Version | Previous Version | Text Only | Print | Product List | Glossary On
Versions: 1 2 3 4 5 6 7 8 9 10 11 12 13 14 15 16 17 18 19 20 21 22 23 24 25 26 27 28 29 30 31 32 33 34 35 36 37 38 39 40 41 42 43 44 45 46 47
000
FTUS45 KBOU 222203 AAB
TAFDEN
TAF AMD
KDEN 222203Z 2222/2324 01028G40KT P6SM VCTS SCT035CB BKN060
      TEMPO 2222/2302 3SM -SHRA BR OVC025
     FM230200 36012G20KT P6SM SCT035 BKN050
     FM230700 33010KT P6SM BKN060
     FM231100 31012KT P6SM SCT060
     FM231800 35015G23KT P6SM BKN060=

USA.gov is the U.S. government's official web portal to all federal, state and local government web resources and services.